createdAt,value
2022-12-25T00:00:25.506Z,96575.88
2022-12-25T00:02:53.898Z,96574.19
2022-12-25T00:05:22.450Z,96559.97
2022-12-25T00:07:52.076Z,96571.22
2022-12-25T00:10:20.304Z,96567.06
2022-12-25T00:12:48.574Z,96569.03
2022-12-25T00:15:16.942Z,96562.91
2022-12-25T00:17:45.329Z,96576.47
2022-12-25T00:20:13.694Z,96582.78
2022-12-25T00:22:41.942Z,96587.06
2022-12-25T00:25:11.703Z,96585.69
2022-12-25T00:27:39.971Z,96594.66
2022-12-25T00:30:09.445Z,96593.03
2022-12-25T00:32:38.313Z,96589.88
2022-12-25T00:35:07.788Z,96594.03
2022-12-25T00:37:36.122Z,96597.34
2022-12-25T00:40:04.749Z,96595.69
2022-12-25T00:42:34.472Z,96590.06
2022-12-25T00:45:02.688Z,96595.63
2022-12-25T00:47:31.124Z,96588.03
2022-12-25T00:49:59.395Z,96590.50
2022-12-25T00:52:27.713Z,96596.69
2022-12-25T00:54:55.944Z,96596.69
2022-12-25T00:57:24.252Z,96584.78
2022-12-25T00:59:53.879Z,96584.44
2022-12-25T01:02:25.593Z,96587.59
2022-12-25T01:04:55.864Z,96588.84
2022-12-25T01:07:26.981Z,96595.50
2022-12-25T01:10:12.872Z,96595.81
2022-12-25T01:12:46.915Z,96595.56
2022-12-25T01:15:17.262Z,96597.06
2022-12-25T01:17:46.481Z,96594.84
2022-12-25T01:20:16.405Z,96587.72
2022-12-25T01:22:45.712Z,96594.91
2022-12-25T01:25:14.892Z,96596.75
2022-12-25T01:27:43.713Z,96598.63
2022-12-25T01:30:13.386Z,96597.00
2022-12-25T01:32:43.326Z,96607.09
2022-12-25T01:35:12.168Z,96603.34
2022-12-25T01:37:43.488Z,96594.91
2022-12-25T01:40:12.511Z,96601.84
2022-12-25T01:42:40.869Z,96593.03
2022-12-25T01:45:29.808Z,96595.66
2022-12-25T01:47:59.505Z,96599.47
2022-12-25T01:50:28.673Z,96608.84
2022-12-25T01:52:57.804Z,96602.81
2022-12-25T01:55:27.378Z,96589.47
2022-12-25T01:57:55.914Z,96596.78
2022-12-25T02:00:24.264Z,96597.09
2022-12-25T02:02:52.715Z,96588.66
2022-12-25T02:05:27.259Z,96590.28
2022-12-25T02:07:55.688Z,96593.06
2022-12-25T02:10:23.971Z,96587.41
2022-12-25T02:12:52.479Z,96592.06
2022-12-25T02:15:23.392Z,96598.25
2022-12-25T02:17:58.312Z,96583.25
2022-12-25T02:20:41.962Z,96586.53
2022-12-25T02:23:49.920Z,96591.31
2022-12-25T02:26:29.354Z,96604.94
2022-12-25T02:29:00.961Z,96598.53
2022-12-25T02:31:33.277Z,96599.81
2022-12-25T02:34:08.122Z,96592.59
2022-12-25T02:36:41.257Z,96600.63
2022-12-25T02:39:32.351Z,96592.38
2022-12-25T02:42:02.261Z,96593.59
2022-12-25T02:44:49.877Z,96602.78
2022-12-25T02:47:50.958Z,96597.88
2022-12-25T02:50:37.119Z,96584.47
2022-12-25T02:53:23.502Z,96591.94
2022-12-25T02:56:09.558Z,96593.63
2022-12-25T02:58:56.524Z,96597.28
2022-12-25T03:01:47.307Z,96584.84
2022-12-25T03:04:35.770Z,96585.50
2022-12-25T03:07:08.221Z,96578.00
2022-12-25T03:09:58.935Z,96577.56
2022-12-25T03:12:32.439Z,96579.38
2022-12-25T03:15:18.351Z,96579.53
2022-12-25T03:17:48.262Z,96570.91
2022-12-25T03:20:34.184Z,96574.38
2022-12-25T03:23:20.061Z,96571.91
2022-12-25T03:26:06.096Z,96572.72
2022-12-25T03:28:34.443Z,96570.06
2022-12-25T03:31:13.281Z,96571.91
2022-12-25T03:34:28.306Z,96574.06
2022-12-25T03:37:26.080Z,96565.91
2022-12-25T03:40:18.309Z,96564.25
2022-12-25T03:43:07.647Z,96566.47
2022-12-25T03:45:58.178Z,96576.53
2022-12-25T03:48:45.615Z,96570.94
2022-12-25T03:51:33.361Z,96567.16
2022-12-25T03:54:21.240Z,96563.22
2022-12-25T03:57:07.522Z,96563.09
2022-12-25T03:59:53.534Z,96549.34
2022-12-25T04:02:39.474Z,96554.78
2022-12-25T04:05:26.073Z,96552.63
2022-12-25T04:08:13.395Z,96551.34
2022-12-25T04:10:59.354Z,96549.19
2022-12-25T04:13:46.329Z,96545.53
2022-12-25T04:16:32.351Z,96539.91
2022-12-25T04:19:18.083Z,96540.00
2022-12-25T04:22:03.951Z,96535.03
2022-12-25T04:24:51.037Z,96538.63
2022-12-25T04:27:48.669Z,96542.81
2022-12-25T04:30:34.525Z,96538.31
2022-12-25T04:33:20.509Z,96543.50
2022-12-25T04:36:06.581Z,96526.31
2022-12-25T04:38:34.861Z,96540.75
2022-12-25T04:41:05.000Z,96541.81
2022-12-25T04:43:33.311Z,96535.66
2022-12-25T04:46:02.762Z,96520.66
2022-12-25T04:48:32.797Z,96526.13
2022-12-25T04:51:11.350Z,96528.47
2022-12-25T04:53:39.668Z,96524.59
2022-12-25T04:56:09.338Z,96524.63
2022-12-25T04:58:37.605Z,96524.66
2022-12-25T05:01:06.367Z,96533.78
2022-12-25T05:03:35.192Z,96522.50
2022-12-25T05:06:03.873Z,96515.53
2022-12-25T05:08:33.079Z,96521.81
2022-12-25T05:11:02.164Z,96517.34
2022-12-25T05:13:32.966Z,96519.34
2022-12-25T05:16:01.506Z,96523.34
2022-12-25T05:18:29.739Z,96525.47
2022-12-25T05:20:57.996Z,96526.50
2022-12-25T05:23:26.238Z,96520.69
2022-12-25T05:25:54.477Z,96520.69
2022-12-25T05:28:22.701Z,96524.31
2022-12-25T05:30:52.287Z,96538.09
2022-12-25T05:33:20.556Z,96529.63
2022-12-25T05:35:48.761Z,96523.50
2022-12-25T05:38:17.017Z,96512.88
2022-12-25T05:40:45.371Z,96520.69
2022-12-25T05:43:13.787Z,96526.13
2022-12-25T05:45:42.109Z,96532.94
2022-12-25T05:48:11.951Z,96529.81
2022-12-25T05:50:40.360Z,96517.88
2022-12-25T05:53:09.377Z,96519.34
2022-12-25T05:55:38.351Z,96513.53
2022-12-25T05:58:07.764Z,96506.91
2022-12-25T06:00:36.118Z,96513.56
2022-12-25T06:03:04.872Z,96502.75
2022-12-25T06:05:34.638Z,96510.56
2022-12-25T06:08:02.964Z,96514.03
2022-12-25T06:10:31.329Z,96514.22
2022-12-25T06:12:59.665Z,96511.56
2022-12-25T06:15:28.015Z,96512.03
2022-12-25T06:17:56.498Z,96523.66
2022-12-25T06:20:24.849Z,96527.81
2022-12-25T06:22:54.529Z,96521.34
2022-12-25T06:25:22.885Z,96520.00
2022-12-25T06:27:51.240Z,96520.34
2022-12-25T06:30:19.763Z,96514.88
2022-12-25T06:32:48.091Z,96515.19
2022-12-25T06:35:16.662Z,96519.22
2022-12-25T06:37:44.942Z,96508.06
2022-12-25T06:40:15.346Z,96517.53
2022-12-25T06:42:43.674Z,96517.69
2022-12-25T06:45:12.404Z,96516.19
2022-12-25T06:47:40.739Z,96522.69
2022-12-25T06:50:09.505Z,96513.03
2022-12-25T06:52:37.773Z,96514.88
2022-12-25T06:55:06.899Z,96517.75
2022-12-25T06:57:36.553Z,96519.78
2022-12-25T07:00:05.793Z,96518.50
2022-12-25T07:02:34.624Z,96520.19
2022-12-25T07:05:04.543Z,96513.16
2022-12-25T07:07:32.956Z,96519.91
2022-12-25T07:10:01.228Z,96515.03
2022-12-25T07:12:29.450Z,96520.88
2022-12-25T07:14:59.143Z,96519.63
2022-12-25T07:17:27.359Z,96515.38
2022-12-25T07:19:56.648Z,96510.94
2022-12-25T07:22:24.992Z,96508.59
2022-12-25T07:24:53.316Z,96512.19
2022-12-25T07:27:21.637Z,96505.38
2022-12-25T07:29:50.395Z,96501.44
2022-12-25T07:32:20.087Z,96504.09
2022-12-25T07:34:48.311Z,96493.97
2022-12-25T07:37:16.514Z,96500.78
2022-12-25T07:39:44.749Z,96498.78
2022-12-25T07:42:12.962Z,96501.44
2022-12-25T07:44:41.220Z,96500.44
2022-12-25T07:47:09.637Z,96506.09
2022-12-25T07:49:39.309Z,96508.25
2022-12-25T07:52:07.612Z,96510.56
2022-12-25T07:54:35.848Z,96506.59
2022-12-25T07:57:04.145Z,96498.63
2022-12-25T07:59:32.360Z,96505.44
2022-12-25T08:02:00.784Z,96504.38
2022-12-25T08:04:29.273Z,96514.50
2022-12-25T08:06:58.846Z,96515.69
2022-12-25T08:09:27.117Z,96510.56
2022-12-25T08:11:55.349Z,96509.16
2022-12-25T08:14:23.573Z,96499.97
2022-12-25T08:16:51.922Z,96496.50
2022-12-25T08:19:20.457Z,96495.56
2022-12-25T08:21:48.634Z,96492.06
2022-12-25T08:24:18.255Z,96498.91
2022-12-25T08:26:46.549Z,96494.63
2022-12-25T08:29:14.782Z,96497.13
2022-12-25T08:31:46.404Z,96483.72
2022-12-25T08:34:14.862Z,96501.13
2022-12-25T08:36:43.394Z,96504.16
2022-12-25T08:39:11.693Z,96503.84
2022-12-25T08:41:41.782Z,96505.09
2022-12-25T08:44:12.947Z,96496.13
2022-12-25T08:46:41.256Z,96488.66
2022-12-25T08:49:09.713Z,96499.81
2022-12-25T08:51:38.228Z,96489.63
2022-12-25T08:54:06.607Z,96493.44
2022-12-25T08:56:36.516Z,96487.91
2022-12-25T08:59:06.119Z,96490.00
2022-12-25T09:01:34.521Z,96484.81
2022-12-25T09:04:02.915Z,96486.13
2022-12-25T09:06:31.123Z,96487.72
2022-12-25T09:08:59.514Z,96481.91
2022-12-25T09:11:27.761Z,96485.59
2022-12-25T09:13:55.993Z,96486.13
2022-12-25T09:16:25.657Z,96479.69
2022-12-25T09:18:54.145Z,96486.09
2022-12-25T09:21:22.462Z,96483.94
2022-12-25T09:23:50.912Z,96479.97
2022-12-25T09:26:19.876Z,96479.16
2022-12-25T09:28:52.046Z,96471.09
2022-12-25T09:31:21.766Z,96481.13
2022-12-25T09:33:52.166Z,96488.44
2022-12-25T09:36:23.201Z,96478.28
2022-12-25T09:38:51.635Z,96475.38
2022-12-25T09:41:24.332Z,96474.75
2022-12-25T09:43:55.857Z,96468.09
2022-12-25T09:46:34.737Z,96464.16
2022-12-25T09:49:12.588Z,96455.16
2022-12-25T09:51:42.274Z,96451.72
2022-12-25T09:54:15.435Z,96453.22
2022-12-25T09:56:43.747Z,96455.09
2022-12-25T09:59:19.755Z,96454.00
2022-12-25T10:01:59.594Z,96453.88
2022-12-25T10:04:43.182Z,96460.72
2022-12-25T10:07:18.752Z,96454.31
2022-12-25T10:09:58.489Z,96461.31
2022-12-25T10:12:37.117Z,96457.88
2022-12-25T10:15:14.125Z,96459.28
2022-12-25T10:17:48.743Z,96453.75
2022-12-25T10:20:24.360Z,96453.53
2022-12-25T10:22:54.630Z,96459.41
2022-12-25T10:25:25.992Z,96459.97
2022-12-25T10:27:57.501Z,96457.53
2022-12-25T10:30:27.452Z,96450.63
2022-12-25T10:32:56.949Z,96445.41
2022-12-25T10:35:28.389Z,96443.53
2022-12-25T10:38:00.837Z,96434.97
2022-12-25T10:40:37.679Z,96421.16
2022-12-25T10:43:09.995Z,96417.81
2022-12-25T10:45:45.714Z,96408.03
2022-12-25T10:48:23.807Z,96408.09
2022-12-25T10:50:54.110Z,96407.81
2022-12-25T10:53:25.205Z,96399.72
2022-12-25T10:55:58.220Z,96409.97
2022-12-25T10:58:26.847Z,96408.00
2022-12-25T11:00:58.100Z,96413.94
2022-12-25T11:03:29.647Z,96402.78
2022-12-25T11:05:59.481Z,96393.69
2022-12-25T11:08:29.926Z,96394.44
2022-12-25T11:11:00.544Z,96386.72
2022-12-25T11:13:29.339Z,96393.31
2022-12-25T11:16:07.044Z,96389.94
2022-12-25T11:18:36.850Z,96381.00
2022-12-25T11:21:17.406Z,96384.78
2022-12-25T11:23:47.685Z,96382.38
2022-12-25T11:26:16.696Z,96381.84
2022-12-25T11:28:46.452Z,96375.03
2022-12-25T11:31:19.241Z,96374.31
2022-12-25T11:33:53.968Z,96363.22
2022-12-25T11:36:28.343Z,96362.41
2022-12-25T11:38:56.995Z,96359.16
2022-12-25T11:41:30.050Z,96358.00
2022-12-25T11:44:00.548Z,96358.13
2022-12-25T11:46:32.219Z,96353.13
2022-12-25T11:49:01.997Z,96349.75
2022-12-25T11:51:34.513Z,96347.69
2022-12-25T11:54:08.831Z,96348.81
2022-12-25T11:56:38.088Z,96349.88
2022-12-25T11:59:12.492Z,96345.84
2022-12-25T12:01:45.638Z,96337.13
2022-12-25T12:04:23.074Z,96343.97
2022-12-25T12:06:59.857Z,96327.41
2022-12-25T12:09:37.696Z,96328.69
2022-12-25T12:12:10.046Z,96318.25
2022-12-25T12:14:48.527Z,96304.53
2022-12-25T12:17:18.318Z,96310.69
2022-12-25T12:19:46.930Z,96305.47
2022-12-25T12:22:21.453Z,96299.53
2022-12-25T12:24:54.921Z,96308.56
2022-12-25T12:27:26.882Z,96302.63
2022-12-25T12:29:56.985Z,96290.53
2022-12-25T12:32:31.319Z,96286.31
2022-12-25T12:35:00.024Z,96293.00
2022-12-25T12:37:32.478Z,96288.91
2022-12-25T12:40:00.929Z,96292.66
2022-12-25T12:42:32.553Z,96281.69
2022-12-25T12:45:10.345Z,96278.38
2022-12-25T12:47:40.343Z,96283.19
2022-12-25T12:50:24.752Z,96275.13
2022-12-25T12:52:54.532Z,96273.94
2022-12-25T12:55:29.843Z,96268.94
2022-12-25T12:58:01.792Z,96269.63
2022-12-25T13:00:36.933Z,96271.19
2022-12-25T13:03:27.903Z,96269.19
2022-12-25T13:05:59.261Z,96264.22
2022-12-25T13:08:39.116Z,96275.50
2022-12-25T13:11:13.547Z,96273.41
2022-12-25T13:13:44.257Z,96264.72
2022-12-25T13:16:18.336Z,96271.81
2022-12-25T13:18:46.737Z,96269.72
2022-12-25T13:21:19.015Z,96272.47
2022-12-25T13:23:48.742Z,96272.88
2022-12-25T13:26:18.447Z,96267.88
2022-12-25T13:28:47.483Z,96268.28
2022-12-25T13:31:18.984Z,96267.75
2022-12-25T13:33:50.473Z,96268.59
2022-12-25T13:36:18.758Z,96256.22
2022-12-25T13:38:50.552Z,96242.72
2022-12-25T13:41:38.164Z,96235.88
2022-12-25T13:44:14.889Z,96246.03
2022-12-25T13:46:43.200Z,96241.94
2022-12-25T13:49:15.449Z,96249.44
2022-12-25T13:51:43.821Z,96254.84
2022-12-25T13:54:15.634Z,96256.53
2022-12-25T13:56:48.817Z,96267.44
2022-12-25T13:59:18.816Z,96260.94
2022-12-25T14:01:47.683Z,96270.41
2022-12-25T14:04:17.925Z,96265.06
2022-12-25T14:06:46.243Z,96261.78
2022-12-25T14:09:16.551Z,96251.91
2022-12-25T14:11:46.924Z,96260.75
2022-12-25T14:14:21.336Z,96253.03
2022-12-25T14:16:51.512Z,96241.56
2022-12-25T14:19:26.413Z,96243.97
2022-12-25T14:21:57.447Z,96238.31
2022-12-25T14:24:28.726Z,96243.34
2022-12-25T14:27:01.218Z,96247.72
2022-12-25T14:29:33.512Z,96245.88
2022-12-25T14:32:05.148Z,96240.59
2022-12-25T14:34:33.720Z,96251.38
2022-12-25T14:37:02.974Z,96251.94
2022-12-25T14:39:35.198Z,96264.53
2022-12-25T14:42:13.284Z,96266.66
2022-12-25T14:44:42.075Z,96271.06
2022-12-25T14:47:16.854Z,96271.22
2022-12-25T14:49:45.345Z,96262.41
2022-12-25T14:52:18.473Z,96267.84
2022-12-25T14:54:49.955Z,96275.22
2022-12-25T14:57:21.093Z,96271.75
2022-12-25T14:59:56.874Z,96265.00
2022-12-25T15:02:25.568Z,96262.38
2022-12-25T15:04:54.500Z,96261.91
2022-12-25T15:07:26.826Z,96269.06
2022-12-25T15:10:27.296Z,96280.25
2022-12-25T15:12:44.764Z,96275.56
2022-12-25T15:15:13.070Z,96278.38
2022-12-25T15:17:41.320Z,96281.50
2022-12-25T15:20:12.861Z,96278.41
2022-12-25T15:23:17.791Z,96275.66
2022-12-25T15:25:30.842Z,96275.72
2022-12-25T15:28:00.291Z,96261.13
2022-12-25T15:30:28.513Z,96259.84
2022-12-25T15:32:56.998Z,96265.38
2022-12-25T15:35:25.543Z,96247.59
2022-12-25T15:37:53.804Z,96261.78
2022-12-25T15:40:22.083Z,96267.06
2022-12-25T15:42:52.077Z,96264.31
2022-12-25T15:45:22.718Z,96274.53
2022-12-25T15:47:50.846Z,96276.00
2022-12-25T15:50:19.837Z,96272.47
2022-12-25T15:52:48.593Z,96281.97
2022-12-25T15:55:17.431Z,96272.81
2022-12-25T15:57:48.395Z,96270.25
2022-12-25T16:00:22.699Z,96279.66
2022-12-25T16:02:51.316Z,96279.31
2022-12-25T16:05:19.681Z,96270.53
2022-12-25T16:07:48.394Z,96274.75
2022-12-25T16:10:19.517Z,96280.88
2022-12-25T16:12:48.266Z,96275.50
2022-12-25T16:15:18.267Z,96283.88
2022-12-25T16:17:46.455Z,96278.28
2022-12-25T16:20:15.093Z,96285.97
2022-12-25T16:22:43.426Z,96276.84
2022-12-25T16:25:15.976Z,96282.06
2022-12-25T16:27:44.495Z,96283.13
2022-12-25T16:30:14.572Z,96281.53
2022-12-25T16:32:44.585Z,96282.94
2022-12-25T16:35:13.042Z,96284.22
2022-12-25T16:37:41.407Z,96282.28
2022-12-25T16:40:10.694Z,96280.78
2022-12-25T16:42:39.392Z,96279.31
2022-12-25T16:45:08.535Z,96281.75
2022-12-25T16:47:36.875Z,96288.22
2022-12-25T16:50:08.930Z,96280.91
2022-12-25T16:52:37.511Z,96283.66
2022-12-25T16:55:06.977Z,96283.69
2022-12-25T16:57:35.282Z,96283.84
2022-12-25T17:00:03.842Z,96277.25
2022-12-25T17:02:32.323Z,96279.63
2022-12-25T17:05:00.999Z,96284.28
2022-12-25T17:07:30.713Z,96287.75
2022-12-25T17:09:59.058Z,96290.88
2022-12-25T17:12:27.415Z,96283.97
2022-12-25T17:14:55.626Z,96275.69
2022-12-25T17:17:23.944Z,96271.22
2022-12-25T17:19:52.175Z,96279.50
2022-12-25T17:22:20.457Z,96273.19
2022-12-25T17:24:50.110Z,96277.50
2022-12-25T17:27:18.348Z,96269.25
2022-12-25T17:29:47.274Z,96266.56
2022-12-25T17:32:15.627Z,96273.84
2022-12-25T17:34:43.962Z,96272.63
2022-12-25T17:37:12.270Z,96270.00
2022-12-25T17:39:40.683Z,96261.75
2022-12-25T17:42:10.317Z,96267.38
2022-12-25T17:44:38.605Z,96257.59
2022-12-25T17:47:07.031Z,96246.53
2022-12-25T17:49:35.876Z,96257.50
2022-12-25T17:52:04.207Z,96262.94
2022-12-25T17:54:32.549Z,96261.34
2022-12-25T17:57:01.318Z,96258.13
2022-12-25T17:59:31.215Z,96262.28
2022-12-25T18:01:59.540Z,96255.53
2022-12-25T18:04:27.922Z,96262.31
2022-12-25T18:06:56.319Z,96272.16
2022-12-25T18:09:24.656Z,96267.72
2022-12-25T18:11:52.956Z,96276.59
2022-12-25T18:14:21.267Z,96288.75
2022-12-25T18:16:51.063Z,96292.72
2022-12-25T18:19:19.754Z,96298.84
2022-12-25T18:21:48.168Z,96300.50
2022-12-25T18:24:16.818Z,96326.47
2022-12-25T18:26:45.778Z,96319.75
2022-12-25T18:29:14.370Z,96331.25
2022-12-25T18:31:43.327Z,96314.13
2022-12-25T18:34:13.013Z,96307.88
2022-12-25T18:36:41.383Z,96307.38
2022-12-25T18:39:09.817Z,96307.06
2022-12-25T18:41:58.093Z,96301.19
2022-12-25T18:44:26.423Z,96291.81
2022-12-25T18:46:54.919Z,96299.78
2022-12-25T18:49:24.568Z,96296.31
2022-12-25T18:51:52.867Z,96305.69
2022-12-25T18:54:41.105Z,96301.75
2022-12-25T18:57:09.896Z,96303.06
2022-12-25T18:59:38.530Z,96311.16
2022-12-25T19:02:07.033Z,96319.63
2022-12-25T19:04:37.072Z,96320.38
2022-12-25T19:07:05.661Z,96313.81
2022-12-25T19:09:34.011Z,96326.72
2022-12-25T19:12:02.546Z,96317.50
2022-12-25T19:14:30.920Z,96312.53
2022-12-25T19:17:16.450Z,96313.50
2022-12-25T19:19:46.856Z,96310.25
2022-12-25T19:22:15.416Z,96297.78
2022-12-25T19:24:44.295Z,96300.44
2022-12-25T19:27:13.145Z,96299.91
2022-12-25T19:29:41.463Z,96310.78
2022-12-25T19:32:10.043Z,96316.25
2022-12-25T19:34:38.839Z,96316.63
2022-12-25T19:37:09.890Z,96315.63
2022-12-25T19:39:40.093Z,96323.78
2022-12-25T19:42:08.465Z,96320.19
2022-12-25T19:44:36.951Z,96321.28
2022-12-25T19:47:05.350Z,96326.19
2022-12-25T19:49:33.665Z,96319.53
2022-12-25T19:52:02.079Z,96313.50
2022-12-25T19:54:32.060Z,96314.13
2022-12-25T19:57:00.445Z,96317.75
2022-12-25T19:59:28.805Z,96311.63
2022-12-25T20:01:57.241Z,96307.09
2022-12-25T20:04:25.755Z,96307.91
2022-12-25T20:06:54.126Z,96307.25
2022-12-25T20:09:22.931Z,96303.78
2022-12-25T20:11:52.694Z,96305.53
2022-12-25T20:14:21.138Z,96305.00
2022-12-25T20:16:49.658Z,96299.22
2022-12-25T20:19:17.929Z,96304.50
2022-12-25T20:21:46.371Z,96300.50
2022-12-25T20:24:14.597Z,96310.94
2022-12-25T20:26:46.472Z,96308.63
2022-12-25T20:29:17.467Z,96302.72
2022-12-25T20:31:45.784Z,96306.56
2022-12-25T20:34:14.175Z,96308.06
2022-12-25T20:36:42.448Z,96311.22
2022-12-25T20:39:13.629Z,96309.88
2022-12-25T20:41:41.848Z,96318.38
2022-12-25T20:44:10.740Z,96321.34
2022-12-25T20:46:40.333Z,96321.66
2022-12-25T20:49:08.733Z,96319.22
2022-12-25T20:51:37.162Z,96322.00
2022-12-25T20:54:07.351Z,96333.59
2022-12-25T20:56:36.035Z,96320.88
2022-12-25T20:59:04.384Z,96323.38
2022-12-25T21:01:32.825Z,96317.72
2022-12-25T21:04:02.839Z,96316.72
2022-12-25T21:06:31.678Z,96319.72
2022-12-25T21:09:00.091Z,96319.06
2022-12-25T21:11:30.480Z,96320.88
2022-12-25T21:13:59.116Z,96328.31
2022-12-25T21:16:28.693Z,96329.84
2022-12-25T21:18:57.043Z,96336.09
2022-12-25T21:21:26.803Z,96333.31
2022-12-25T21:23:56.847Z,96339.25
2022-12-25T21:26:27.057Z,96345.88
2022-12-25T21:28:57.544Z,96346.06
2022-12-25T21:31:26.113Z,96346.06
2022-12-25T21:33:54.959Z,96354.16
2022-12-25T21:36:27.237Z,96357.47
2022-12-25T21:38:57.903Z,96362.78
2022-12-25T21:41:26.499Z,96362.13
2022-12-25T21:43:55.214Z,96364.41
2022-12-25T21:46:24.136Z,96375.84
2022-12-25T21:48:52.511Z,96378.50
2022-12-25T21:51:40.169Z,96378.34
2022-12-25T21:54:10.222Z,96374.69
2022-12-25T21:56:44.656Z,96379.84
2022-12-25T21:59:14.704Z,96382.16
2022-12-25T22:01:43.939Z,96380.78
2022-12-25T22:04:13.156Z,96384.63
2022-12-25T22:06:58.813Z,96376.69
2022-12-25T22:09:28.574Z,96381.00
2022-12-25T22:12:15.009Z,96381.47
2022-12-25T22:14:55.270Z,96380.50
2022-12-25T22:17:43.585Z,96390.25
2022-12-25T22:20:14.471Z,96393.91
2022-12-25T22:22:42.913Z,96390.44
2022-12-25T22:25:13.307Z,96396.41
2022-12-25T22:27:42.726Z,96392.91
2022-12-25T22:30:13.467Z,96394.91
2022-12-25T22:32:41.891Z,96396.38
2022-12-25T22:35:12.235Z,96388.28
2022-12-25T22:37:40.933Z,96388.78
2022-12-25T22:40:11.027Z,96398.38
2022-12-25T22:42:41.008Z,96390.59
2022-12-25T22:45:10.608Z,96401.22
2022-12-25T22:47:39.164Z,96393.91
2022-12-25T22:50:08.345Z,96393.06
2022-12-25T22:52:37.433Z,96389.03
2022-12-25T22:55:07.665Z,96401.50
2022-12-25T22:57:36.287Z,96400.47
2022-12-25T23:00:08.883Z,96398.88
2022-12-25T23:02:37.582Z,96394.84
2022-12-25T23:05:06.759Z,96401.47
2022-12-25T23:07:35.070Z,96396.38
2022-12-25T23:10:03.437Z,96401.50
2022-12-25T23:12:48.521Z,96403.16
2022-12-25T23:15:18.420Z,96405.28
2022-12-25T23:18:04.143Z,96395.50
2022-12-25T23:20:50.850Z,96396.03
2022-12-25T23:23:37.068Z,96400.31
2022-12-25T23:26:11.357Z,96402.47
2022-12-25T23:28:59.380Z,96406.13
2022-12-25T23:31:33.753Z,96407.31
2022-12-25T23:34:03.154Z,96407.97
2022-12-25T23:36:31.739Z,96415.78
2022-12-25T23:39:06.706Z,96411.94
2022-12-25T23:41:37.235Z,96413.97
2022-12-25T23:44:05.617Z,96410.97
2022-12-25T23:46:35.338Z,96408.16
2022-12-25T23:49:03.775Z,96410.97
2022-12-25T23:51:32.132Z,96411.16
2022-12-25T23:54:00.505Z,96411.16
2022-12-25T23:56:28.830Z,96410.16
2022-12-25T23:58:57.276Z,96408.97
